createdAt,value
2018-12-25T00:01:49.738Z,5.94
2018-12-25T00:02:22.683Z,5.94
2018-12-25T00:02:55.577Z,5.94
2018-12-25T00:03:28.706Z,5.94
2018-12-25T00:04:01.560Z,5.94
2018-12-25T00:04:34.546Z,6.00
2018-12-25T00:05:07.621Z,6.00
2018-12-25T00:05:40.602Z,6.00
2018-12-25T00:06:13.766Z,6.06
2018-12-25T00:06:47.806Z,6.06
2018-12-25T00:07:35.285Z,6.06
2018-12-25T00:08:08.209Z,6.06
2018-12-25T00:08:41.084Z,6.06
2018-12-25T00:10:04.493Z,6.06
2018-12-25T00:10:37.640Z,6.06
2018-12-25T00:11:10.583Z,6.06
2018-12-25T00:11:43.666Z,6.06
2018-12-25T00:12:16.743Z,6.06
2018-12-25T00:12:49.628Z,6.06
2018-12-25T00:13:22.579Z,6.06
2018-12-25T00:13:55.493Z,6.06
2018-12-25T00:14:28.333Z,6.00
2018-12-25T00:15:01.298Z,6.00
2018-12-25T00:15:34.435Z,6.00
2018-12-25T00:16:07.419Z,5.94
2018-12-25T00:16:40.387Z,5.94
2018-12-25T00:17:13.387Z,5.94
2018-12-25T00:17:46.338Z,5.94
2018-12-25T00:18:19.156Z,5.94
2018-12-25T00:18:52.312Z,5.87
2018-12-25T00:19:25.502Z,5.87
2018-12-25T00:19:58.856Z,5.87
2018-12-25T00:20:33.355Z,5.87
2018-12-25T00:21:19.984Z,5.81
2018-12-25T00:21:52.889Z,5.81
2018-12-25T00:22:25.966Z,5.81
2018-12-25T00:22:58.949Z,5.81
2018-12-25T00:23:31.939Z,5.75
2018-12-25T00:24:05.087Z,5.75
2018-12-25T00:24:37.991Z,5.75
2018-12-25T00:25:27.297Z,5.75
2018-12-25T00:26:00.272Z,5.75
2018-12-25T00:26:33.239Z,5.75
2018-12-25T00:27:06.324Z,5.75
2018-12-25T00:27:39.268Z,5.75
2018-12-25T00:28:12.235Z,5.75
2018-12-25T00:28:45.317Z,5.75
2018-12-25T00:29:18.473Z,5.75
2018-12-25T00:29:51.872Z,5.81
2018-12-25T00:30:24.812Z,5.81
2018-12-25T00:30:57.824Z,5.81
2018-12-25T00:31:30.786Z,5.81
2018-12-25T00:32:03.729Z,5.81
2018-12-25T00:32:36.799Z,5.81
2018-12-25T00:33:09.676Z,5.81
2018-12-25T00:33:42.629Z,5.81
2018-12-25T00:34:15.722Z,5.81
2018-12-25T00:34:48.576Z,5.81
2018-12-25T00:35:21.655Z,5.87
2018-12-25T00:35:54.716Z,5.87
2018-12-25T00:36:27.786Z,5.87
2018-12-25T00:37:00.855Z,5.87
2018-12-25T00:37:33.796Z,5.87
2018-12-25T00:38:06.832Z,5.87
2018-12-25T00:38:40.109Z,5.87
2018-12-25T00:39:13.113Z,5.87
2018-12-25T00:39:46.177Z,5.94
2018-12-25T00:40:19.211Z,5.94
2018-12-25T00:40:52.167Z,5.94
2018-12-25T00:41:25.160Z,5.94
2018-12-25T00:41:58.101Z,5.94
2018-12-25T00:42:31.079Z,5.94
2018-12-25T00:43:04.089Z,5.94
2018-12-25T00:43:36.931Z,5.94
2018-12-25T00:44:09.979Z,6.00
2018-12-25T00:44:42.839Z,6.00
2018-12-25T00:45:15.812Z,6.00
2018-12-25T00:45:48.850Z,6.00
2018-12-25T00:46:21.888Z,6.00
2018-12-25T00:46:54.841Z,5.94
2018-12-25T00:47:27.725Z,5.94
2018-12-25T00:48:00.789Z,5.94
2018-12-25T00:48:33.761Z,5.94
2018-12-25T00:49:14.537Z,6.00
2018-12-25T00:49:54.703Z,6.00
2018-12-25T00:50:27.643Z,6.06
2018-12-25T00:51:00.592Z,6.06
2018-12-25T00:51:33.612Z,6.06
2018-12-25T00:52:06.579Z,6.12
2018-12-25T00:52:39.720Z,6.12
2018-12-25T00:53:12.763Z,6.12
2018-12-25T00:53:45.696Z,6.12
2018-12-25T00:54:18.562Z,6.12
2018-12-25T00:54:51.480Z,6.12
2018-12-25T00:55:24.483Z,6.12
2018-12-25T00:55:57.521Z,6.12
2018-12-25T00:56:30.538Z,6.12
2018-12-25T00:57:03.682Z,6.12
2018-12-25T00:57:36.691Z,6.12
2018-12-25T00:58:09.746Z,6.12
2018-12-25T00:58:42.613Z,6.12
2018-12-25T00:59:15.697Z,6.06
2018-12-25T00:59:48.689Z,6.06
2018-12-25T01:00:21.709Z,6.06
2018-12-25T01:00:54.780Z,6.06
2018-12-25T01:01:27.879Z,6.06
2018-12-25T01:02:02.947Z,6.06
2018-12-25T01:02:35.912Z,6.06
2018-12-25T01:03:08.967Z,6.06
2018-12-25T01:03:41.969Z,6.06
2018-12-25T01:04:14.969Z,6.06
2018-12-25T01:04:48.033Z,6.06
2018-12-25T01:05:20.916Z,6.06
2018-12-25T01:05:53.902Z,6.06
2018-12-25T01:06:26.763Z,6.06
2018-12-25T01:06:59.830Z,6.06
2018-12-25T01:07:32.749Z,6.06
2018-12-25T01:08:05.689Z,6.00
2018-12-25T01:08:38.605Z,6.00
2018-12-25T01:09:11.657Z,6.00
2018-12-25T01:09:44.673Z,6.00
2018-12-25T01:10:17.895Z,6.00
2018-12-25T01:10:50.757Z,6.00
2018-12-25T01:11:23.763Z,6.00
2018-12-25T01:11:56.955Z,6.00
2018-12-25T01:12:30.053Z,6.00
2018-12-25T01:13:02.967Z,6.00
2018-12-25T01:13:36.153Z,6.00
2018-12-25T01:14:09.164Z,6.00
2018-12-25T01:14:42.281Z,5.94
2018-12-25T01:15:15.387Z,6.00
2018-12-25T01:15:48.314Z,6.00
2018-12-25T01:16:21.349Z,5.94
2018-12-25T01:16:54.406Z,5.94
2018-12-25T01:17:27.437Z,5.94
2018-12-25T01:18:00.880Z,5.94
2018-12-25T01:18:33.932Z,5.94
2018-12-25T01:19:06.970Z,5.94
2018-12-25T01:19:40.115Z,5.94
2018-12-25T01:20:13.199Z,5.94
2018-12-25T01:20:46.137Z,5.94
2018-12-25T01:21:19.092Z,5.94
2018-12-25T01:21:52.088Z,5.94
2018-12-25T01:22:25.018Z,5.94
2018-12-25T01:22:58.009Z,5.94
2018-12-25T01:23:30.884Z,5.94
2018-12-25T01:24:03.901Z,5.94
2018-12-25T01:24:36.949Z,5.94
2018-12-25T01:25:09.952Z,5.94
2018-12-25T01:25:42.910Z,6.00
2018-12-25T01:26:15.818Z,6.00
2018-12-25T01:26:48.795Z,6.00
2018-12-25T01:27:21.713Z,6.00
2018-12-25T01:27:54.745Z,6.00
2018-12-25T01:28:27.673Z,6.00
2018-12-25T01:29:00.639Z,6.00
2018-12-25T01:29:33.541Z,6.00
2018-12-25T01:30:06.671Z,6.06
2018-12-25T01:30:39.569Z,6.00
2018-12-25T01:31:12.642Z,6.00
2018-12-25T01:31:45.657Z,6.00
2018-12-25T01:32:18.731Z,6.00
2018-12-25T01:32:51.640Z,6.00
2018-12-25T01:33:24.532Z,6.00
2018-12-25T01:33:57.472Z,6.00
2018-12-25T01:34:30.610Z,6.00
2018-12-25T01:35:04.252Z,6.00
2018-12-25T01:35:37.311Z,6.00
2018-12-25T01:36:10.228Z,6.00
2018-12-25T01:36:43.056Z,5.94
2018-12-25T01:37:15.972Z,6.00
2018-12-25T01:37:48.793Z,6.00
2018-12-25T01:38:21.799Z,6.00
2018-12-25T01:38:54.752Z,6.00
2018-12-25T01:39:27.534Z,5.94
2018-12-25T01:40:00.536Z,5.94
2018-12-25T01:40:33.357Z,5.94
2018-12-25T01:41:06.282Z,5.94
2018-12-25T01:41:39.181Z,5.94
2018-12-25T01:42:12.250Z,5.94
2018-12-25T01:42:45.215Z,5.94
2018-12-25T01:43:18.254Z,5.94
2018-12-25T01:43:51.146Z,5.94
2018-12-25T01:44:23.992Z,5.94
2018-12-25T01:44:56.984Z,5.94
2018-12-25T01:45:30.004Z,5.94
2018-12-25T01:46:02.957Z,5.94
2018-12-25T01:46:35.858Z,5.94
2018-12-25T01:47:09.025Z,5.94
2018-12-25T01:47:42.042Z,5.94
2018-12-25T01:48:15.091Z,5.94
2018-12-25T01:48:48.131Z,5.94
2018-12-25T01:49:40.705Z,5.94
2018-12-25T01:50:13.766Z,5.94
2018-12-25T01:50:46.728Z,5.87
2018-12-25T01:51:19.644Z,5.94
2018-12-25T01:51:52.722Z,5.94
2018-12-25T01:52:25.703Z,5.94
2018-12-25T01:52:58.642Z,5.94
2018-12-25T01:53:31.716Z,5.87
2018-12-25T01:54:04.558Z,5.87
2018-12-25T01:54:37.590Z,5.87
2018-12-25T01:55:10.555Z,5.87
2018-12-25T01:55:43.576Z,5.87
2018-12-25T01:56:16.617Z,5.87
2018-12-25T01:56:49.602Z,5.87
2018-12-25T01:57:22.556Z,5.87
2018-12-25T01:57:55.636Z,5.87
2018-12-25T01:58:28.703Z,5.94
2018-12-25T01:59:01.714Z,5.87
2018-12-25T01:59:34.767Z,5.87
2018-12-25T02:00:07.749Z,5.87
2018-12-25T02:00:40.806Z,5.94
2018-12-25T02:01:13.802Z,5.94
2018-12-25T02:01:46.756Z,5.94
2018-12-25T02:02:19.706Z,5.94
2018-12-25T02:02:52.666Z,5.94
2018-12-25T02:03:25.758Z,5.94
2018-12-25T02:03:58.921Z,5.87
2018-12-25T02:04:32.109Z,5.94
2018-12-25T02:05:05.164Z,5.87
2018-12-25T02:05:38.264Z,5.87
2018-12-25T02:06:11.196Z,5.87
2018-12-25T02:06:44.256Z,5.87
2018-12-25T02:07:17.540Z,5.87
2018-12-25T02:07:52.493Z,5.87
2018-12-25T02:08:25.447Z,5.87
2018-12-25T02:08:58.364Z,5.87
2018-12-25T02:09:31.323Z,5.87
2018-12-25T02:10:04.518Z,5.87
2018-12-25T02:10:37.544Z,5.87
2018-12-25T02:11:10.512Z,5.94
2018-12-25T02:11:43.482Z,5.94
2018-12-25T02:12:16.536Z,5.94
2018-12-25T02:12:49.548Z,5.94
2018-12-25T02:13:22.484Z,5.94
2018-12-25T02:13:55.452Z,5.94
2018-12-25T02:14:28.552Z,5.94
2018-12-25T02:15:01.649Z,5.94
2018-12-25T02:15:34.593Z,5.94
2018-12-25T02:16:07.678Z,5.94
2018-12-25T02:16:40.770Z,5.94
2018-12-25T02:17:13.874Z,5.94
2018-12-25T02:17:46.758Z,5.94
2018-12-25T02:18:19.692Z,5.94
2018-12-25T02:18:52.638Z,6.00
2018-12-25T02:19:25.717Z,6.00
2018-12-25T02:19:58.662Z,6.00
2018-12-25T02:20:31.580Z,6.00
2018-12-25T02:21:04.634Z,6.00
2018-12-25T02:21:37.702Z,6.00
2018-12-25T02:22:10.661Z,6.00
2018-12-25T02:22:43.618Z,6.00
2018-12-25T02:23:16.557Z,6.00
2018-12-25T02:23:49.654Z,6.00
2018-12-25T02:24:22.734Z,6.00
2018-12-25T02:24:55.890Z,6.00
2018-12-25T02:25:28.900Z,6.06
2018-12-25T02:26:02.588Z,6.06
2018-12-25T02:26:35.624Z,6.06
2018-12-25T02:27:08.593Z,6.06
2018-12-25T02:27:41.610Z,6.06
2018-12-25T02:28:14.582Z,6.06
2018-12-25T02:28:47.790Z,6.12
2018-12-25T02:29:21.056Z,6.12
2018-12-25T02:29:54.243Z,6.12
2018-12-25T02:30:27.302Z,6.12
2018-12-25T02:31:00.402Z,6.12
2018-12-25T02:31:33.443Z,6.12
2018-12-25T02:32:06.397Z,6.12
2018-12-25T02:32:39.336Z,6.12
2018-12-25T02:33:12.332Z,6.19
2018-12-25T02:33:45.409Z,6.19
2018-12-25T02:34:18.545Z,6.19
2018-12-25T02:34:51.540Z,6.19
2018-12-25T02:35:24.516Z,6.19
2018-12-25T02:35:57.609Z,6.19
2018-12-25T02:36:30.491Z,6.19
2018-12-25T02:37:03.477Z,6.12
2018-12-25T02:37:36.455Z,6.12
2018-12-25T02:38:09.494Z,6.12
2018-12-25T02:38:43.391Z,6.12
2018-12-25T02:39:16.513Z,6.06
2018-12-25T02:39:49.915Z,6.06
2018-12-25T02:40:22.897Z,6.06
2018-12-25T02:40:55.996Z,6.06
2018-12-25T02:41:29.060Z,6.06
2018-12-25T02:42:02.097Z,6.06
2018-12-25T02:42:34.946Z,6.06
2018-12-25T02:43:07.883Z,6.06
2018-12-25T02:43:41.078Z,6.06
2018-12-25T02:44:14.200Z,6.06
2018-12-25T02:44:47.431Z,6.06
2018-12-25T02:45:20.341Z,6.06
2018-12-25T02:45:53.374Z,6.06
2018-12-25T02:46:26.501Z,6.06
2018-12-25T02:46:59.555Z,6.06
2018-12-25T02:47:32.463Z,6.06
2018-12-25T02:48:05.423Z,6.06
2018-12-25T02:48:38.433Z,6.06
2018-12-25T02:49:11.479Z,6.00
2018-12-25T02:49:50.280Z,6.00
2018-12-25T02:50:33.276Z,6.00
2018-12-25T02:51:06.208Z,6.00
2018-12-25T02:51:39.037Z,6.00
2018-12-25T02:52:12.067Z,6.00
2018-12-25T02:52:45.017Z,6.00
2018-12-25T02:53:17.837Z,6.00
2018-12-25T02:53:50.747Z,6.00
2018-12-25T02:54:23.808Z,6.00
2018-12-25T02:54:56.812Z,6.00
2018-12-25T02:55:29.791Z,6.00
2018-12-25T02:56:02.962Z,6.00
2018-12-25T02:56:35.791Z,6.00
2018-12-25T02:57:08.685Z,6.00
2018-12-25T02:57:41.559Z,6.06
2018-12-25T02:58:14.557Z,6.06
2018-12-25T02:58:47.391Z,6.06
2018-12-25T02:59:20.238Z,6.06
2018-12-25T02:59:53.242Z,6.06
2018-12-25T03:00:26.287Z,6.06
2018-12-25T03:00:59.287Z,6.00
2018-12-25T03:01:32.224Z,6.00
2018-12-25T03:02:05.139Z,6.00
2018-12-25T03:02:38.042Z,6.00
2018-12-25T03:03:10.858Z,6.00
2018-12-25T03:03:43.899Z,6.00
2018-12-25T03:04:16.920Z,6.00
2018-12-25T03:04:49.954Z,6.00
2018-12-25T03:05:22.972Z,6.00
2018-12-25T03:05:55.916Z,6.00
2018-12-25T03:06:28.821Z,6.00
2018-12-25T03:07:01.749Z,6.00
2018-12-25T03:07:34.906Z,6.00
2018-12-25T03:08:07.801Z,5.94
2018-12-25T03:08:40.819Z,5.94
2018-12-25T03:09:13.839Z,5.94
2018-12-25T03:09:46.756Z,5.94
2018-12-25T03:10:19.771Z,5.94
2018-12-25T03:10:52.716Z,5.94
2018-12-25T03:11:25.783Z,5.87
2018-12-25T03:11:58.683Z,5.87
2018-12-25T03:12:31.692Z,5.87
2018-12-25T03:13:04.731Z,5.87
2018-12-25T03:13:37.755Z,5.87
2018-12-25T03:14:10.772Z,5.87
2018-12-25T03:14:43.717Z,5.94
2018-12-25T03:15:16.798Z,5.94
2018-12-25T03:16:03.329Z,5.94
2018-12-25T03:16:36.277Z,5.94
2018-12-25T03:17:09.203Z,5.94
2018-12-25T03:17:42.323Z,5.94
2018-12-25T03:18:15.335Z,5.94
2018-12-25T03:18:48.183Z,5.94
2018-12-25T03:19:21.297Z,5.94
2018-12-25T03:19:59.841Z,5.94
2018-12-25T03:20:42.489Z,5.87
2018-12-25T03:21:15.574Z,5.87
2018-12-25T03:21:48.641Z,5.87
2018-12-25T03:22:21.722Z,5.87
2018-12-25T03:22:54.682Z,5.87
2018-12-25T03:23:27.639Z,5.81
2018-12-25T03:24:02.603Z,5.81
2018-12-25T03:24:35.674Z,5.81
2018-12-25T03:25:08.590Z,5.75
2018-12-25T03:25:41.587Z,5.75
2018-12-25T03:26:14.553Z,5.69
2018-12-25T03:26:47.560Z,5.69
2018-12-25T03:27:20.575Z,5.62
2018-12-25T03:27:53.591Z,5.62
2018-12-25T03:28:26.536Z,5.56
2018-12-25T03:28:59.438Z,5.50
2018-12-25T03:29:32.454Z,5.50
2018-12-25T03:30:05.534Z,5.44
2018-12-25T03:30:38.492Z,5.44
2018-12-25T03:31:11.407Z,5.37
2018-12-25T03:31:44.488Z,5.37
2018-12-25T03:32:17.528Z,5.31
2018-12-25T03:32:50.601Z,5.31
2018-12-25T03:33:23.426Z,5.25
2018-12-25T03:33:56.363Z,5.19
2018-12-25T03:34:29.277Z,5.19
2018-12-25T03:35:02.313Z,5.19
2018-12-25T03:35:35.317Z,5.12
2018-12-25T03:36:08.163Z,5.12
2018-12-25T03:36:41.149Z,5.12
2018-12-25T03:37:14.123Z,5.06
2018-12-25T03:37:46.912Z,5.06
2018-12-25T03:38:19.864Z,5.06
2018-12-25T03:38:52.846Z,5.06
2018-12-25T03:39:25.892Z,5.06
2018-12-25T03:39:58.708Z,5.00
2018-12-25T03:41:45.219Z,4.94
2018-12-25T03:42:18.251Z,4.94
2018-12-25T03:42:51.326Z,4.94
2018-12-25T03:43:24.290Z,4.87
2018-12-25T03:43:57.471Z,4.87
2018-12-25T03:44:30.434Z,4.87
2018-12-25T03:45:04.146Z,4.87
2018-12-25T03:45:37.146Z,4.87
2018-12-25T03:46:10.142Z,4.87
2018-12-25T03:46:43.173Z,4.87
2018-12-25T03:47:16.103Z,4.87
2018-12-25T03:47:48.979Z,4.87
2018-12-25T03:48:21.924Z,4.87
2018-12-25T03:48:54.909Z,4.94
2018-12-25T03:49:27.752Z,4.87
2018-12-25T03:50:10.003Z,4.94
2018-12-25T03:50:49.223Z,4.94
2018-12-25T03:51:22.349Z,4.94
2018-12-25T03:51:55.312Z,4.94
2018-12-25T03:52:30.161Z,4.94
2018-12-25T03:53:03.220Z,4.94
2018-12-25T03:53:36.177Z,4.94
2018-12-25T03:54:09.167Z,4.94
2018-12-25T03:54:42.217Z,5.00
2018-12-25T03:55:15.226Z,5.06
2018-12-25T03:55:48.304Z,5.06
2018-12-25T03:56:21.239Z,5.12
2018-12-25T03:56:54.228Z,5.12
2018-12-25T03:57:27.232Z,5.19
2018-12-25T03:58:00.177Z,5.19
2018-12-25T03:58:33.090Z,5.19
2018-12-25T03:59:06.238Z,5.19
2018-12-25T03:59:39.137Z,5.19
2018-12-25T04:00:12.099Z,5.19
2018-12-25T04:00:45.033Z,5.25
2018-12-25T04:01:17.961Z,5.25
2018-12-25T04:01:50.847Z,5.25
2018-12-25T04:02:23.736Z,5.25
2018-12-25T04:02:56.622Z,5.31
2018-12-25T04:03:29.810Z,5.31
2018-12-25T04:04:02.734Z,5.31
2018-12-25T04:04:35.582Z,5.25
2018-12-25T04:05:08.558Z,5.25
2018-12-25T04:05:41.474Z,5.25
2018-12-25T04:06:14.735Z,5.25
2018-12-25T04:06:47.659Z,5.25
2018-12-25T04:07:20.476Z,5.25
2018-12-25T04:07:53.397Z,5.31
2018-12-25T04:08:26.307Z,5.31
2018-12-25T04:08:59.245Z,5.37
2018-12-25T04:09:32.172Z,5.37
2018-12-25T04:10:05.235Z,5.37
2018-12-25T04:10:38.212Z,5.37
2018-12-25T04:11:11.158Z,5.31
2018-12-25T04:11:44.074Z,5.31
2018-12-25T04:12:17.186Z,5.25
2018-12-25T04:12:50.094Z,5.25
2018-12-25T04:13:23.124Z,5.25
2018-12-25T04:13:56.052Z,5.25
2018-12-25T04:14:29.005Z,5.25
2018-12-25T04:15:02.006Z,5.25
2018-12-25T04:15:34.920Z,5.25
2018-12-25T04:16:07.944Z,5.25
2018-12-25T04:16:40.892Z,5.25
2018-12-25T04:17:13.864Z,5.25
2018-12-25T04:17:46.798Z,5.25
2018-12-25T04:18:19.715Z,5.25
2018-12-25T04:18:52.713Z,5.25
2018-12-25T04:19:25.659Z,5.19
2018-12-25T04:19:58.566Z,5.19
2018-12-25T04:20:31.539Z,5.12
2018-12-25T04:21:04.546Z,5.12
2018-12-25T04:21:37.486Z,5.12
2018-12-25T04:22:10.510Z,5.06
2018-12-25T04:22:43.634Z,5.06
2018-12-25T04:23:16.660Z,5.06
2018-12-25T04:23:49.634Z,5.00
2018-12-25T04:24:22.650Z,5.00
2018-12-25T04:24:55.802Z,5.00
2018-12-25T04:25:28.720Z,4.94
2018-12-25T04:26:01.792Z,4.94
2018-12-25T04:26:34.686Z,4.87
2018-12-25T04:27:08.239Z,4.87
2018-12-25T04:27:41.277Z,4.81
2018-12-25T04:28:14.196Z,4.81
2018-12-25T04:28:47.204Z,4.81
2018-12-25T04:29:20.374Z,4.75
2018-12-25T04:29:53.530Z,4.75
2018-12-25T04:30:26.574Z,4.75
2018-12-25T04:30:59.505Z,4.69
2018-12-25T04:31:32.571Z,4.69
2018-12-25T04:32:05.478Z,4.69
2018-12-25T04:32:38.404Z,4.62
2018-12-25T04:33:11.485Z,4.62
2018-12-25T04:33:44.421Z,4.62
2018-12-25T04:34:17.422Z,4.62
2018-12-25T04:34:50.365Z,4.56
2018-12-25T04:35:23.501Z,4.56
2018-12-25T04:35:56.506Z,4.56
2018-12-25T04:36:31.326Z,4.56
2018-12-25T04:37:04.218Z,4.50
2018-12-25T04:37:37.034Z,4.50
2018-12-25T04:38:09.884Z,4.50
2018-12-25T04:38:43.033Z,4.50
2018-12-25T04:39:16.276Z,4.50
2018-12-25T04:39:49.458Z,4.50
2018-12-25T04:40:22.454Z,4.50
2018-12-25T04:40:55.402Z,4.44
2018-12-25T04:41:28.348Z,4.44
2018-12-25T04:42:01.207Z,4.44
2018-12-25T04:42:34.082Z,4.37
2018-12-25T04:43:07.166Z,4.37
2018-12-25T04:43:40.074Z,4.37
2018-12-25T04:44:13.158Z,4.37
2018-12-25T04:44:46.005Z,4.37
2018-12-25T04:45:19.110Z,4.37
2018-12-25T04:45:52.064Z,4.37
2018-12-25T04:46:24.955Z,4.37
2018-12-25T04:46:57.969Z,4.44
2018-12-25T04:47:30.844Z,4.44
2018-12-25T04:48:03.700Z,4.44
2018-12-25T04:48:36.602Z,4.44
2018-12-25T04:49:29.304Z,4.37
2018-12-25T04:50:02.480Z,4.44
2018-12-25T04:50:35.520Z,4.44
2018-12-25T04:51:08.573Z,4.44
2018-12-25T04:51:41.715Z,4.44
2018-12-25T04:52:14.639Z,4.44
2018-12-25T04:52:47.578Z,4.44
2018-12-25T04:53:20.509Z,4.44
2018-12-25T04:53:53.414Z,4.44
2018-12-25T04:54:26.376Z,4.44
2018-12-25T04:54:59.322Z,4.37
2018-12-25T04:55:32.136Z,4.37
2018-12-25T04:56:05.183Z,4.37
2018-12-25T04:56:38.140Z,4.37
2018-12-25T04:57:11.076Z,4.31
2018-12-25T04:57:44.048Z,4.37
2018-12-25T04:58:16.972Z,4.31
2018-12-25T04:58:49.853Z,4.37
2018-12-25T04:59:22.864Z,4.37
2018-12-25T04:59:55.857Z,4.37
2018-12-25T05:00:28.984Z,4.31
2018-12-25T05:01:01.995Z,4.31
2018-12-25T05:01:34.947Z,4.31
2018-12-25T05:02:07.876Z,4.31
2018-12-25T05:02:40.803Z,4.25
2018-12-25T05:03:13.855Z,4.25
2018-12-25T05:03:46.672Z,4.19
2018-12-25T05:04:19.498Z,4.19
2018-12-25T05:04:52.576Z,4.19
2018-12-25T05:05:25.724Z,4.19
2018-12-25T05:05:58.851Z,4.19
2018-12-25T05:06:31.693Z,4.19
2018-12-25T05:07:04.613Z,4.19
2018-12-25T05:07:37.534Z,4.12
2018-12-25T05:08:10.543Z,4.12
2018-12-25T05:08:43.696Z,4.12
2018-12-25T05:09:16.634Z,4.12
2018-12-25T05:09:49.719Z,4.12
2018-12-25T05:10:22.720Z,4.06
2018-12-25T05:10:55.678Z,4.12
2018-12-25T05:11:28.611Z,4.06
2018-12-25T05:12:01.585Z,4.06
2018-12-25T05:12:34.594Z,4.06
2018-12-25T05:13:07.509Z,4.06
2018-12-25T05:13:40.322Z,4.00
2018-12-25T05:14:13.276Z,4.00
2018-12-25T05:14:46.194Z,4.00
2018-12-25T05:15:19.215Z,4.00
2018-12-25T05:15:52.165Z,3.94
2018-12-25T05:16:25.121Z,3.94
2018-12-25T05:17:52.264Z,3.94
2018-12-25T05:18:25.219Z,3.94
2018-12-25T05:18:58.307Z,3.94
2018-12-25T05:19:31.363Z,3.94
2018-12-25T05:20:04.682Z,3.94
2018-12-25T05:20:38.221Z,3.94
2018-12-25T05:21:26.585Z,3.94
2018-12-25T05:21:59.585Z,3.94
2018-12-25T05:22:32.650Z,3.94
2018-12-25T05:23:05.702Z,3.94
2018-12-25T05:23:38.581Z,3.87
2018-12-25T05:24:13.457Z,3.87
2018-12-25T05:24:46.579Z,3.87
2018-12-25T05:25:19.550Z,3.81
2018-12-25T05:25:52.650Z,3.81
2018-12-25T05:26:25.722Z,3.81
2018-12-25T05:26:58.816Z,3.81
2018-12-25T05:27:31.761Z,3.75
2018-12-25T05:28:04.735Z,3.75
2018-12-25T05:28:37.664Z,3.75
2018-12-25T05:29:10.859Z,3.75
2018-12-25T05:29:43.837Z,3.75
2018-12-25T05:30:16.793Z,3.75
2018-12-25T05:30:49.771Z,3.81
2018-12-25T05:31:22.637Z,3.75
2018-12-25T05:31:55.697Z,3.75
2018-12-25T05:32:28.633Z,3.75
2018-12-25T05:33:01.481Z,3.75
2018-12-25T05:33:34.923Z,3.75
2018-12-25T05:34:07.923Z,3.75
2018-12-25T05:34:40.997Z,3.69
2018-12-25T05:35:13.940Z,3.69
2018-12-25T05:35:47.028Z,3.69
2018-12-25T05:36:19.826Z,3.69
2018-12-25T05:36:52.704Z,3.69
2018-12-25T05:37:25.511Z,3.75
2018-12-25T05:37:58.382Z,3.75
2018-12-25T05:38:31.171Z,3.75
2018-12-25T05:39:06.337Z,3.75
2018-12-25T05:39:39.223Z,3.75
2018-12-25T05:40:12.186Z,3.75
2018-12-25T05:40:45.181Z,3.75
2018-12-25T05:41:18.237Z,3.75
2018-12-25T05:41:51.261Z,3.75
2018-12-25T05:42:24.187Z,3.69
2018-12-25T05:42:57.115Z,3.75
2018-12-25T05:43:29.978Z,3.75
2018-12-25T05:44:03.025Z,3.75
2018-12-25T05:44:36.121Z,3.75
2018-12-25T05:45:09.055Z,3.75
2018-12-25T05:45:42.161Z,3.75
2018-12-25T05:46:15.071Z,3.75
2018-12-25T05:46:47.909Z,3.81
2018-12-25T05:47:20.707Z,3.81
2018-12-25T05:47:53.564Z,3.81
2018-12-25T05:48:26.564Z,3.81
2018-12-25T05:48:59.441Z,3.81
2018-12-25T05:49:32.349Z,3.75
2018-12-25T05:50:05.809Z,3.81
2018-12-25T05:50:46.439Z,3.81
2018-12-25T05:51:26.947Z,3.81
2018-12-25T05:51:59.793Z,3.87
2018-12-25T05:52:32.799Z,3.87
2018-12-25T05:53:05.860Z,3.87
2018-12-25T05:53:38.899Z,3.94
2018-12-25T05:54:11.768Z,3.94
2018-12-25T05:54:44.799Z,4.00
2018-12-25T05:55:19.425Z,4.00
2018-12-25T05:56:12.455Z,4.00
2018-12-25T05:56:45.493Z,4.00
2018-12-25T05:57:18.451Z,4.00
2018-12-25T05:57:51.509Z,4.00
2018-12-25T05:58:24.315Z,4.00
2018-12-25T05:58:57.149Z,4.00
2018-12-25T05:59:30.081Z,4.06
2018-12-25T06:00:03.845Z,4.06
2018-12-25T06:00:36.874Z,4.06
2018-12-25T06:01:09.909Z,4.00
2018-12-25T06:01:42.845Z,4.00
2018-12-25T06:02:15.657Z,4.06
2018-12-25T06:02:48.573Z,4.06
2018-12-25T06:03:21.509Z,4.12
2018-12-25T06:03:54.438Z,4.12
2018-12-25T06:04:27.477Z,4.12
2018-12-25T06:05:00.503Z,4.12
2018-12-25T06:05:33.575Z,4.19
2018-12-25T06:06:06.597Z,4.25
2018-12-25T06:06:39.435Z,4.31
2018-12-25T06:07:12.473Z,4.31
2018-12-25T06:07:45.421Z,4.31
2018-12-25T06:08:18.224Z,4.31
2018-12-25T06:08:51.144Z,4.31
2018-12-25T06:09:24.083Z,4.37
2018-12-25T06:09:56.983Z,4.37
2018-12-25T06:10:29.907Z,4.44
2018-12-25T06:11:02.963Z,4.44
2018-12-25T06:11:35.878Z,4.44
2018-12-25T06:12:08.911Z,4.44
2018-12-25T06:12:41.817Z,4.44
2018-12-25T06:13:14.835Z,4.44
2018-12-25T06:13:47.782Z,4.44
2018-12-25T06:14:20.873Z,4.37
2018-12-25T06:14:53.693Z,4.37
2018-12-25T06:15:26.637Z,4.37
2018-12-25T06:16:13.789Z,4.37
2018-12-25T06:16:46.746Z,4.44
2018-12-25T06:17:19.825Z,4.44
2018-12-25T06:17:52.704Z,4.44
2018-12-25T06:18:25.749Z,4.44
2018-12-25T06:18:58.617Z,4.44
2018-12-25T06:19:31.467Z,4.37
2018-12-25T06:20:04.743Z,4.37
2018-12-25T06:20:55.201Z,4.37
2018-12-25T06:21:26.899Z,4.31
2018-12-25T06:21:59.982Z,4.31
2018-12-25T06:22:32.809Z,4.31
2018-12-25T06:23:05.677Z,4.25
2018-12-25T06:23:38.794Z,4.25
2018-12-25T06:24:11.994Z,4.25
2018-12-25T06:24:44.874Z,4.19
2018-12-25T06:25:17.816Z,4.19
2018-12-25T06:25:50.783Z,4.19
2018-12-25T06:26:23.846Z,4.19
2018-12-25T06:26:56.902Z,4.12
2018-12-25T06:27:29.955Z,4.12
2018-12-25T06:28:03.047Z,4.12
2018-12-25T06:28:35.966Z,4.12
2018-12-25T06:29:09.097Z,4.12
2018-12-25T06:29:41.992Z,4.19
2018-12-25T06:30:14.990Z,4.12
2018-12-25T06:30:48.069Z,4.12
2018-12-25T06:31:21.449Z,4.12
2018-12-25T06:32:08.680Z,4.12
2018-12-25T06:32:41.736Z,4.06
2018-12-25T06:33:14.808Z,4.06
2018-12-25T06:33:47.774Z,4.06
2018-12-25T06:34:20.779Z,4.06
2018-12-25T06:34:53.818Z,4.06
2018-12-25T06:35:26.769Z,4.06
2018-12-25T06:35:59.766Z,4.06
2018-12-25T06:36:32.826Z,4.06
2018-12-25T06:37:05.874Z,4.06
2018-12-25T06:37:38.852Z,4.00
2018-12-25T06:38:11.917Z,4.00
2018-12-25T06:38:44.872Z,4.00
2018-12-25T06:39:17.746Z,4.00
2018-12-25T06:39:50.730Z,4.00
2018-12-25T06:40:23.781Z,3.94
2018-12-25T06:40:56.622Z,3.94
2018-12-25T06:41:29.595Z,3.94
2018-12-25T06:42:02.562Z,3.94
2018-12-25T06:42:35.633Z,4.00
2018-12-25T06:43:08.585Z,3.94
2018-12-25T06:43:41.574Z,3.94
2018-12-25T06:44:14.638Z,3.94
2018-12-25T06:44:47.710Z,3.94
2018-12-25T06:45:22.452Z,3.94
2018-12-25T06:45:55.500Z,3.94
2018-12-25T06:46:28.436Z,3.94
2018-12-25T06:47:01.414Z,3.94
2018-12-25T06:47:34.282Z,3.94
2018-12-25T06:48:07.316Z,3.87
2018-12-25T06:48:40.175Z,3.87
2018-12-25T06:49:13.116Z,3.81
2018-12-25T06:49:46.150Z,3.81
2018-12-25T06:50:19.211Z,3.81
2018-12-25T06:50:52.244Z,3.81
2018-12-25T06:51:25.263Z,3.75
2018-12-25T06:51:58.165Z,3.75
2018-12-25T06:52:31.084Z,3.75
2018-12-25T06:53:03.975Z,3.75
2018-12-25T06:53:36.921Z,3.75
2018-12-25T06:54:09.828Z,3.69
2018-12-25T06:54:42.776Z,3.69
2018-12-25T06:55:15.808Z,3.62
2018-12-25T06:55:48.822Z,3.62
2018-12-25T06:56:21.898Z,3.62
2018-12-25T06:56:55.012Z,3.62
2018-12-25T06:57:27.940Z,3.56
2018-12-25T06:58:00.902Z,3.56
2018-12-25T06:58:33.792Z,3.56
2018-12-25T06:59:06.720Z,3.56
2018-12-25T06:59:39.804Z,3.56
2018-12-25T07:00:25.577Z,3.56
2018-12-25T07:00:58.553Z,3.56
2018-12-25T07:01:31.663Z,3.56
2018-12-25T07:02:06.537Z,3.56
2018-12-25T07:02:39.501Z,3.56
2018-12-25T07:03:12.594Z,3.50
2018-12-25T07:03:45.536Z,3.50
2018-12-25T07:04:20.510Z,3.50
2018-12-25T07:04:53.387Z,3.50
2018-12-25T07:05:26.604Z,3.44
2018-12-25T07:05:59.606Z,3.44
2018-12-25T07:06:32.682Z,3.44
2018-12-25T07:07:05.758Z,3.37
2018-12-25T07:07:38.732Z,3.44
2018-12-25T07:08:25.652Z,3.37
2018-12-25T07:08:58.606Z,3.37
2018-12-25T07:09:31.644Z,3.37
2018-12-25T07:10:04.753Z,3.37
2018-12-25T07:10:37.706Z,3.37
2018-12-25T07:11:10.760Z,3.37
2018-12-25T07:11:43.864Z,3.37
2018-12-25T07:12:16.939Z,3.37
2018-12-25T07:12:49.872Z,3.37
2018-12-25T07:13:22.844Z,3.44
2018-12-25T07:13:55.938Z,3.44
2018-12-25T07:14:29.030Z,3.44
2018-12-25T07:15:02.198Z,3.44
2018-12-25T07:15:35.265Z,3.50
2018-12-25T07:16:08.390Z,3.50
2018-12-25T07:16:41.797Z,3.44
2018-12-25T07:17:14.827Z,3.44
2018-12-25T07:17:47.780Z,3.44
2018-12-25T07:18:20.866Z,3.44
2018-12-25T07:18:53.812Z,3.37
2018-12-25T07:19:26.745Z,3.37
2018-12-25T07:19:59.866Z,3.31
2018-12-25T07:20:32.759Z,3.31
2018-12-25T07:21:12.132Z,3.31
2018-12-25T07:21:54.078Z,3.25
2018-12-25T07:22:27.232Z,3.25
2018-12-25T07:23:00.141Z,3.25
2018-12-25T07:23:33.107Z,3.25
2018-12-25T07:24:06.162Z,3.19
2018-12-25T07:24:39.110Z,3.19
2018-12-25T07:25:12.128Z,3.19
2018-12-25T07:25:45.246Z,3.12
2018-12-25T07:26:31.831Z,3.12
2018-12-25T07:27:04.914Z,3.12
2018-12-25T07:27:38.015Z,3.12
2018-12-25T07:28:11.083Z,3.06
2018-12-25T07:28:44.035Z,3.06
2018-12-25T07:29:16.948Z,3.06